sensor_id;sensor_type;location;lat;lon;timestamp;noise_LAeq;noise_LA_min;noise_LA_max;noise_LA01;noise_LA95
71026;Laerm;62048;52.312;4.858;2022-08-24T00:00:06;30.83;29.32;33.29;;
71026;Laerm;62048;52.312;4.858;2022-08-24T00:00:18;30.05;28.60;32.26;;
71026;Laerm;62048;52.312;4.858;2022-08-24T00:00:29;30.37;29.05;31.95;;
71026;Laerm;62048;52.312;4.858;2022-08-24T00:00:40;30.07;28.54;33.04;;
71026;Laerm;62048;52.312;4.858;2022-08-24T00:00:50;30.17;28.29;32.61;;
71026;Laerm;62048;52.312;4.858;2022-08-24T00:01:00;30.36;28.80;31.76;;
71026;Laerm;62048;52.312;4.858;2022-08-24T00:01:11;30.17;28.65;31.88;;
71026;Laerm;62048;52.312;4.858;2022-08-24T00:01:22;30.40;29.01;32.10;;
71026;Laerm;62048;52.312;4.858;2022-08-24T00:01:33;31.28;29.22;34.12;;
71026;Laerm;62048;52.312;4.858;2022-08-24T00:01:43;31.10;28.99;33.51;;
71026;Laerm;62048;52.312;4.858;2022-08-24T00:01:53;30.29;28.85;32.11;;
71026;Laerm;62048;52.312;4.858;2022-08-24T00:02:04;30.71;28.92;35.94;;
71026;Laerm;62048;52.312;4.858;2022-08-24T00:02:14;30.39;28.65;32.09;;
71026;Laerm;62048;52.312;4.858;2022-08-24T00:02:26;30.45;28.65;36.71;;
71026;Laerm;62048;52.312;4.858;2022-08-24T00:02:37;30.24;28.66;31.90;;
71026;Laerm;62048;52.312;4.858;2022-08-24T00:02:47;30.10;28.81;31.80;;
71026;Laerm;62048;52.312;4.858;2022-08-24T00:02:58;30.26;28.75;31.99;;
71026;Laerm;62048;52.312;4.858;2022-08-24T00:03:09;30.46;28.80;32.32;;
71026;Laerm;62048;52.312;4.858;2022-08-24T00:03:20;30.39;28.95;32.22;;
71026;Laerm;62048;52.312;4.858;2022-08-24T00:03:32;30.70;29.38;32.67;;
71026;Laerm;62048;52.312;4.858;2022-08-24T00:03:43;31.63;29.69;33.25;;
71026;Laerm;62048;52.312;4.858;2022-08-24T00:03:54;30.66;29.02;33.24;;
71026;Laerm;62048;52.312;4.858;2022-08-24T00:04:06;29.98;28.73;31.43;;
71026;Laerm;62048;52.312;4.858;2022-08-24T00:04:17;29.89;28.70;31.71;;
71026;Laerm;62048;52.312;4.858;2022-08-24T00:04:27;29.79;28.50;31.46;;
71026;Laerm;62048;52.312;4.858;2022-08-24T00:04:37;29.92;28.85;31.11;;
71026;Laerm;62048;52.312;4.858;2022-08-24T00:04:48;29.82;28.69;31.20;;
71026;Laerm;62048;52.312;4.858;2022-08-24T00:04:59;29.51;28.13;31.01;;
71026;Laerm;62048;52.312;4.858;2022-08-24T00:05:10;29.80;28.46;31.49;;
71026;Laerm;62048;52.312;4.858;2022-08-24T00:05:21;31.74;29.09;34.21;;
71026;Laerm;62048;52.312;4.858;2022-08-24T00:05:31;30.70;29.30;32.07;;
71026;Laerm;62048;52.312;4.858;2022-08-24T00:05:41;30.60;29.22;32.04;;
71026;Laerm;62048;52.312;4.858;2022-08-24T00:05:52;30.40;29.06;31.87;;
71026;Laerm;62048;52.312;4.858;2022-08-24T00:06:03;29.72;28.27;31.20;;
71026;Laerm;62048;52.312;4.858;2022-08-24T00:06:15;29.99;28.42;31.76;;
71026;Laerm;62048;52.312;4.858;2022-08-24T00:06:26;30.03;28.52;31.32;;
71026;Laerm;62048;52.312;4.858;2022-08-24T00:06:37;30.15;28.65;32.53;;
71026;Laerm;62048;52.312;4.858;2022-08-24T00:06:47;30.40;28.90;32.26;;
71026;Laerm;62048;52.312;4.858;2022-08-24T00:06:59;30.48;28.40;33.45;;
71026;Laerm;62048;52.312;4.858;2022-08-24T00:07:09;31.98;29.22;36.41;;
71026;Laerm;62048;52.312;4.858;2022-08-24T00:07:20;30.24;28.90;32.25;;
71026;Laerm;62048;52.312;4.858;2022-08-24T00:07:31;30.84;29.25;33.08;;
71026;Laerm;62048;52.312;4.858;2022-08-24T00:07:41;30.74;28.80;32.68;;
71026;Laerm;62048;52.312;4.858;2022-08-24T00:07:51;30.41;28.92;32.58;;
71026;Laerm;62048;52.312;4.858;2022-08-24T00:08:02;30.54;28.62;32.25;;
71026;Laerm;62048;52.312;4.858;2022-08-24T00:08:12;30.49;28.98;32.25;;
71026;Laerm;62048;52.312;4.858;2022-08-24T00:08:23;30.29;28.75;32.21;;
71026;Laerm;62048;52.312;4.858;2022-08-24T00:08:33;30.03;28.42;31.78;;
71026;Laerm;62048;52.312;4.858;2022-08-24T00:08:45;29.91;28.60;31.54;;
71026;Laerm;62048;52.312;4.858;2022-08-24T00:08:56;30.01;28.63;31.67;;
71026;Laerm;62048;52.312;4.858;2022-08-24T00:09:07;30.02;28.74;31.88;;
71026;Laerm;62048;52.312;4.858;2022-08-24T00:09:17;30.02;28.70;31.79;;
71026;Laerm;62048;52.312;4.858;2022-08-24T00:09:28;30.01;28.69;31.57;;
71026;Laerm;62048;52.312;4.858;2022-08-24T00:09:38;29.97;28.69;31.42;;
71026;Laerm;62048;52.312;4.858;2022-08-24T00:09:49;29.90;28.51;31.73;;
71026;Laerm;62048;52.312;4.858;2022-08-24T00:09:59;30.02;28.36;31.67;;
71026;Laerm;62048;52.312;4.858;2022-08-24T00:10:10;30.21;28.87;31.97;;
71026;Laerm;62048;52.312;4.858;2022-08-24T00:10:21;30.16;28.32;32.14;;
71026;Laerm;62048;52.312;4.858;2022-08-24T00:10:31;30.01;28.55;31.20;;
71026;Laerm;62048;52.312;4.858;2022-08-24T00:10:41;30.09;28.68;31.43;;
71026;Laerm;62048;52.312;4.858;2022-08-24T00:10:52;30.18;28.64;31.66;;
71026;Laerm;62048;52.312;4.858;2022-08-24T00:11:02;30.05;28.63;31.37;;
71026;Laerm;62048;52.312;4.858;2022-08-24T00:11:12;30.11;28.79;31.97;;
71026;Laerm;62048;52.312;4.858;2022-08-24T00:11:23;29.99;28.58;31.31;;
71026;Laerm;62048;52.312;4.858;2022-08-24T00:11:33;30.17;28.77;31.43;;
71026;Laerm;62048;52.312;4.858;2022-08-24T00:11:43;29.96;28.55;31.27;;
71026;Laerm;62048;52.312;4.858;2022-08-24T00:11:54;29.87;28.39;31.16;;
71026;Laerm;62048;52.312;4.858;2022-08-24T00:12:04;30.22;27.96;31.91;;
71026;Laerm;62048;52.312;4.858;2022-08-24T00:12:14;30.35;28.83;32.66;;
71026;Laerm;62048;52.312;4.858;2022-08-24T00:12:25;30.59;29.05;35.40;;
71026;Laerm;62048;52.312;4.858;2022-08-24T00:12:35;30.90;29.34;38.39;;
71026;Laerm;62048;52.312;4.858;2022-08-24T00:12:46;31.31;29.47;33.74;;
71026;Laerm;62048;52.312;4.858;2022-08-24T00:12:56;30.62;29.18;34.41;;
71026;Laerm;62048;52.312;4.858;2022-08-24T00:13:07;30.33;28.68;32.03;;
71026;Laerm;62048;52.312;4.858;2022-08-24T00:13:18;29.99;28.58;31.24;;
71026;Laerm;62048;52.312;4.858;2022-08-24T00:13:29;30.57;28.78;33.03;;
71026;Laerm;62048;52.312;4.858;2022-08-24T00:13:39;30.80;28.61;33.02;;
71026;Laerm;62048;52.312;4.858;2022-08-24T00:13:50;30.44;29.21;31.96;;
71026;Laerm;62048;52.312;4.858;2022-08-24T00:14:00;30.24;28.76;33.19;;
71026;Laerm;62048;52.312;4.858;2022-08-24T00:14:11;30.23;28.90;31.30;;
71026;Laerm;62048;52.312;4.858;2022-08-24T00:14:21;30.59;28.73;32.64;;
71026;Laerm;62048;52.312;4.858;2022-08-24T00:14:32;31.30;29.13;33.31;;
71026;Laerm;62048;52.312;4.858;2022-08-24T00:14:42;32.14;29.98;35.36;;
71026;Laerm;62048;52.312;4.858;2022-08-24T00:14:52;31.16;29.58;32.52;;
71026;Laerm;62048;52.312;4.858;2022-08-24T00:15:04;31.37;29.63;33.02;;
71026;Laerm;62048;52.312;4.858;2022-08-24T00:15:16;30.65;28.82;32.71;;
71026;Laerm;62048;52.312;4.858;2022-08-24T00:15:27;30.06;28.80;31.86;;
71026;Laerm;62048;52.312;4.858;2022-08-24T00:15:37;30.51;28.82;32.10;;
71026;Laerm;62048;52.312;4.858;2022-08-24T00:15:47;30.37;28.36;32.55;;
71026;Laerm;62048;52.312;4.858;2022-08-24T00:15:58;31.10;29.08;33.15;;
71026;Laerm;62048;52.312;4.858;2022-08-24T00:16:08;31.24;29.58;32.79;;
71026;Laerm;62048;52.312;4.858;2022-08-24T00:16:19;31.09;29.41;32.41;;
71026;Laerm;62048;52.312;4.858;2022-08-24T00:16:29;30.91;29.11;34.41;;
71026;Laerm;62048;52.312;4.858;2022-08-24T00:16:40;31.35;29.24;37.52;;
71026;Laerm;62048;52.312;4.858;2022-08-24T00:16:51;30.65;29.10;32.11;;
71026;Laerm;62048;52.312;4.858;2022-08-24T00:17:01;29.92;28.55;31.37;;
71026;Laerm;62048;52.312;4.858;2022-08-24T00:17:11;29.81;28.41;31.37;;
71026;Laerm;62048;52.312;4.858;2022-08-24T00:17:22;29.90;28.62;31.27;;
71026;Laerm;62048;52.312;4.858;2022-08-24T00:17:33;30.33;28.72;31.78;;
71026;Laerm;62048;52.312;4.858;2022-08-24T00:17:43;30.22;28.75;33.65;;
71026;Laerm;62048;52.312;4.858;2022-08-24T00:17:53;30.30;28.73;31.94;;
71026;Laerm;62048;52.312;4.858;2022-08-24T00:18:04;31.11;29.31;33.67;;
71026;Laerm;62048;52.312;4.858;2022-08-24T00:18:15;32.06;29.45;35.26;;
71026;Laerm;62048;52.312;4.858;2022-08-24T00:18:25;32.34;29.97;35.50;;
71026;Laerm;62048;52.312;4.858;2022-08-24T00:18:36;31.70;29.51;35.27;;
71026;Laerm;62048;52.312;4.858;2022-08-24T00:18:46;31.24;29.22;33.88;;
71026;Laerm;62048;52.312;4.858;2022-08-24T00:18:57;31.06;28.87;34.47;;
71026;Laerm;62048;52.312;4.858;2022-08-24T00:19:07;31.02;28.91;33.27;;
71026;Laerm;62048;52.312;4.858;2022-08-24T00:19:18;31.16;29.02;34.37;;
71026;Laerm;62048;52.312;4.858;2022-08-24T00:19:28;31.18;29.28;33.79;;
71026;Laerm;62048;52.312;4.858;2022-08-24T00:19:39;31.00;28.66;32.94;;
71026;Laerm;62048;52.312;4.858;2022-08-24T00:19:49;30.76;28.70;32.99;;
71026;Laerm;62048;52.312;4.858;2022-08-24T00:19:59;30.28;28.36;32.47;;
71026;Laerm;62048;52.312;4.858;2022-08-24T00:20:11;30.13;28.45;33.50;;
71026;Laerm;62048;52.312;4.858;2022-08-24T00:20:21;29.92;28.39;31.31;;
71026;Laerm;62048;52.312;4.858;2022-08-24T00:20:32;29.94;28.41;31.92;;
71026;Laerm;62048;52.312;4.858;2022-08-24T00:20:42;29.97;28.57;32.84;;
71026;Laerm;62048;52.312;4.858;2022-08-24T00:20:53;29.96;28.22;31.58;;
71026;Laerm;62048;52.312;4.858;2022-08-24T00:21:03;30.36;28.76;32.11;;
71026;Laerm;62048;52.312;4.858;2022-08-24T00:21:14;30.54;29.07;31.98;;
71026;Laerm;62048;52.312;4.858;2022-08-24T00:21:24;30.34;28.88;31.96;;
71026;Laerm;62048;52.312;4.858;2022-08-24T00:21:36;30.29;29.08;32.18;;
71026;Laerm;62048;52.312;4.858;2022-08-24T00:21:46;30.28;28.72;31.77;;
71026;Laerm;62048;52.312;4.858;2022-08-24T00:21:56;30.35;28.81;32.02;;
71026;Laerm;62048;52.312;4.858;2022-08-24T00:22:07;31.54;29.49;33.74;;
71026;Laerm;62048;52.312;4.858;2022-08-24T00:22:18;31.12;29.86;32.68;;
71026;Laerm;62048;52.312;4.858;2022-08-24T00:22:29;30.99;29.28;32.73;;
71026;Laerm;62048;52.312;4.858;2022-08-24T00:22:40;30.40;28.94;32.30;;
71026;Laerm;62048;52.312;4.858;2022-08-24T00:22:50;30.39;28.92;36.08;;
71026;Laerm;62048;52.312;4.858;2022-08-24T00:23:00;30.28;28.82;35.09;;
71026;Laerm;62048;52.312;4.858;2022-08-24T00:23:11;30.36;28.85;32.15;;
71026;Laerm;62048;52.312;4.858;2022-08-24T00:23:21;30.49;29.21;31.96;;
71026;Laerm;62048;52.312;4.858;2022-08-24T00:23:31;30.24;28.62;31.78;;
71026;Laerm;62048;52.312;4.858;2022-08-24T00:23:42;30.25;28.85;32.06;;
71026;Laerm;62048;52.312;4.858;2022-08-24T00:23:52;30.01;28.44;31.65;;
71026;Laerm;62048;52.312;4.858;2022-08-24T00:24:03;30.11;28.35;32.34;;
71026;Laerm;62048;52.312;4.858;2022-08-24T00:24:14;31.00;29.04;33.17;;
71026;Laerm;62048;52.312;4.858;2022-08-24T00:24:24;30.68;29.33;32.34;;
71026;Laerm;62048;52.312;4.858;2022-08-24T00:24:35;30.37;29.13;32.20;;
71026;Laerm;62048;52.312;4.858;2022-08-24T00:24:45;30.28;28.63;34.14;;
71026;Laerm;62048;52.312;4.858;2022-08-24T00:24:56;31.44;28.81;34.94;;
71026;Laerm;62048;52.312;4.858;2022-08-24T00:25:07;30.46;28.91;32.04;;
71026;Laerm;62048;52.312;4.858;2022-08-24T00:25:18;30.70;29.08;32.53;;
71026;Laerm;62048;52.312;4.858;2022-08-24T00:25:29;30.29;28.79;31.83;;
71026;Laerm;62048;52.312;4.858;2022-08-24T00:25:40;30.36;28.54;31.94;;
71026;Laerm;62048;52.312;4.858;2022-08-24T00:25:51;30.28;28.82;31.51;;
71026;Laerm;62048;52.312;4.858;2022-08-24T00:26:01;30.38;29.00;32.06;;
71026;Laerm;62048;52.312;4.858;2022-08-24T00:26:12;30.19;28.86;31.76;;
71026;Laerm;62048;52.312;4.858;2022-08-24T00:26:22;30.05;28.70;31.40;;
71026;Laerm;62048;52.312;4.858;2022-08-24T00:26:32;30.92;29.23;32.80;;
71026;Laerm;62048;52.312;4.858;2022-08-24T00:26:44;31.50;29.38;36.92;;
71026;Laerm;62048;52.312;4.858;2022-08-24T00:26:55;30.96;29.40;32.49;;
71026;Laerm;62048;52.312;4.858;2022-08-24T00:27:06;31.28;29.35;33.59;;
71026;Laerm;62048;52.312;4.858;2022-08-24T00:27:16;31.28;29.99;32.69;;
71026;Laerm;62048;52.312;4.858;2022-08-24T00:27:26;31.09;29.82;32.74;;
71026;Laerm;62048;52.312;4.858;2022-08-24T00:27:37;31.19;28.92;42.67;;
71026;Laerm;62048;52.312;4.858;2022-08-24T00:27:48;31.99;29.32;46.57;;
71026;Laerm;62048;52.312;4.858;2022-08-24T00:27:58;31.07;29.30;33.05;;
71026;Laerm;62048;52.312;4.858;2022-08-24T00:28:08;31.14;29.52;34.59;;
71026;Laerm;62048;52.312;4.858;2022-08-24T00:28:19;31.31;29.97;32.95;;
71026;Laerm;62048;52.312;4.858;2022-08-24T00:28:29;31.53;29.95;33.44;;
71026;Laerm;62048;52.312;4.858;2022-08-24T00:28:40;32.06;29.97;35.34;;
71026;Laerm;62048;52.312;4.858;2022-08-24T00:28:50;31.14;29.51;32.72;;
71026;Laerm;62048;52.312;4.858;2022-08-24T00:29:01;30.86;29.03;32.44;;
71026;Laerm;62048;52.312;4.858;2022-08-24T00:29:12;30.85;29.27;32.83;;
71026;Laerm;62048;52.312;4.858;2022-08-24T00:29:23;30.91;29.30;33.31;;
71026;Laerm;62048;52.312;4.858;2022-08-24T00:29:33;30.78;29.07;32.44;;
71026;Laerm;62048;52.312;4.858;2022-08-24T00:29:44;30.64;28.93;32.42;;
71026;Laerm;62048;52.312;4.858;2022-08-24T00:29:54;30.49;28.99;32.66;;
71026;Laerm;62048;52.312;4.858;2022-08-24T00:30:06;30.61;28.92;33.70;;
71026;Laerm;62048;52.312;4.858;2022-08-24T00:30:17;30.71;29.10;32.61;;
71026;Laerm;62048;52.312;4.858;2022-08-24T00:30:28;30.49;28.97;32.34;;
71026;Laerm;62048;52.312;4.858;2022-08-24T00:30:38;31.21;28.90;34.66;;
71026;Laerm;62048;52.312;4.858;2022-08-24T00:30:48;32.08;29.79;34.24;;
71026;Laerm;62048;52.312;4.858;2022-08-24T00:30:59;32.49;30.14;37.21;;
71026;Laerm;62048;52.312;4.858;2022-08-24T00:31:10;31.50;29.17;33.76;;
71026;Laerm;62048;52.312;4.858;2022-08-24T00:31:20;31.02;29.38;32.77;;
71026;Laerm;62048;52.312;4.858;2022-08-24T00:31:31;31.70;29.95;33.32;;
71026;Laerm;62048;52.312;4.858;2022-08-24T00:31:41;31.08;29.34;32.76;;
71026;Laerm;62048;52.312;4.858;2022-08-24T00:31:51;31.01;29.26;32.82;;
71026;Laerm;62048;52.312;4.858;2022-08-24T00:32:02;30.79;28.69;35.74;;
71026;Laerm;62048;52.312;4.858;2022-08-24T00:32:12;30.73;29.04;32.46;;
71026;Laerm;62048;52.312;4.858;2022-08-24T00:32:22;30.61;29.21;32.40;;
71026;Laerm;62048;52.312;4.858;2022-08-24T00:32:33;30.47;28.95;32.16;;
71026;Laerm;62048;52.312;4.858;2022-08-24T00:32:43;30.46;28.40;32.03;;
71026;Laerm;62048;52.312;4.858;2022-08-24T00:32:54;30.63;29.33;33.21;;
71026;Laerm;62048;52.312;4.858;2022-08-24T00:33:05;31.45;29.37;33.41;;
71026;Laerm;62048;52.312;4.858;2022-08-24T00:33:17;31.22;29.51;32.76;;
71026;Laerm;62048;52.312;4.858;2022-08-24T00:33:27;30.74;29.16;32.17;;
71026;Laerm;62048;52.312;4.858;2022-08-24T00:33:38;30.61;28.78;32.00;;
71026;Laerm;62048;52.312;4.858;2022-08-24T00:33:48;30.40;28.81;32.19;;
71026;Laerm;62048;52.312;4.858;2022-08-24T00:33:58;30.47;28.54;31.93;;
71026;Laerm;62048;52.312;4.858;2022-08-24T00:34:09;30.48;28.96;32.46;;
71026;Laerm;62048;52.312;4.858;2022-08-24T00:34:19;30.67;28.99;32.45;;
71026;Laerm;62048;52.312;4.858;2022-08-24T00:34:29;30.99;29.30;33.15;;
71026;Laerm;62048;52.312;4.858;2022-08-24T00:34:41;31.07;29.37;32.85;;
71026;Laerm;62048;52.312;4.858;2022-08-24T00:34:52;31.13;29.76;36.38;;
71026;Laerm;62048;52.312;4.858;2022-08-24T00:35:04;31.07;29.31;32.95;;
71026;Laerm;62048;52.312;4.858;2022-08-24T00:35:15;31.01;29.65;32.57;;
71026;Laerm;62048;52.312;4.858;2022-08-24T00:35:27;30.68;29.03;32.26;;
71026;Laerm;62048;52.312;4.858;2022-08-24T00:35:38;31.15;29.40;33.41;;
71026;Laerm;62048;52.312;4.858;2022-08-24T00:35:48;30.70;29.12;32.77;;
71026;Laerm;62048;52.312;4.858;2022-08-24T00:35:59;30.43;28.95;31.84;;
71026;Laerm;62048;52.312;4.858;2022-08-24T00:36:09;30.56;29.09;31.97;;
71026;Laerm;62048;52.312;4.858;2022-08-24T00:36:19;31.04;29.57;32.81;;
71026;Laerm;62048;52.312;4.858;2022-08-24T00:36:31;32.10;30.01;34.83;;
71026;Laerm;62048;52.312;4.858;2022-08-24T00:36:41;32.57;29.91;34.70;;
71026;Laerm;62048;52.312;4.858;2022-08-24T00:36:51;31.17;29.51;33.00;;
71026;Laerm;62048;52.312;4.858;2022-08-24T00:37:02;31.19;29.70;32.70;;
71026;Laerm;62048;52.312;4.858;2022-08-24T00:37:12;30.53;28.90;32.43;;
71026;Laerm;62048;52.312;4.858;2022-08-24T00:37:23;30.46;28.99;32.45;;
71026;Laerm;62048;52.312;4.858;2022-08-24T00:37:34;30.53;28.91;32.17;;
71026;Laerm;62048;52.312;4.858;2022-08-24T00:37:45;30.85;29.46;33.09;;
71026;Laerm;62048;52.312;4.858;2022-08-24T00:37:56;31.01;29.12;32.95;;
71026;Laerm;62048;52.312;4.858;2022-08-24T00:38:06;30.86;29.43;32.84;;
71026;Laerm;62048;52.312;4.858;2022-08-24T00:38:17;30.69;28.96;32.26;;
71026;Laerm;62048;52.312;4.858;2022-08-24T00:38:27;31.06;29.32;32.54;;
71026;Laerm;62048;52.312;4.858;2022-08-24T00:38:38;30.22;28.94;31.57;;
71026;Laerm;62048;52.312;4.858;2022-08-24T00:38:48;30.40;29.11;31.63;;
71026;Laerm;62048;52.312;4.858;2022-08-24T00:38:59;30.60;28.47;41.53;;
71026;Laerm;62048;52.312;4.858;2022-08-24T00:39:10;30.68;29.22;32.10;;
71026;Laerm;62048;52.312;4.858;2022-08-24T00:39:20;30.85;28.99;32.55;;
71026;Laerm;62048;52.312;4.858;2022-08-24T00:39:30;30.84;29.02;32.73;;
71026;Laerm;62048;52.312;4.858;2022-08-24T00:39:41;30.89;29.20;32.94;;
71026;Laerm;62048;52.312;4.858;2022-08-24T00:39:51;30.83;29.47;32.28;;
71026;Laerm;62048;52.312;4.858;2022-08-24T00:40:05;30.93;29.12;32.45;;
71026;Laerm;62048;52.312;4.858;2022-08-24T00:40:21;31.84;29.55;49.49;;
71026;Laerm;62048;52.312;4.858;2022-08-24T00:40:33;31.15;29.24;33.64;;
71026;Laerm;62048;52.312;4.858;2022-08-24T00:40:45;30.87;29.04;32.80;;
71026;Laerm;62048;52.312;4.858;2022-08-24T00:40:56;30.75;29.07;32.55;;
71026;Laerm;62048;52.312;4.858;2022-08-24T00:41:06;30.63;29.24;32.05;;
71026;Laerm;62048;52.312;4.858;2022-08-24T00:41:16;30.93;28.63;32.41;;
71026;Laerm;62048;52.312;4.858;2022-08-24T00:41:27;30.81;29.29;32.27;;
71026;Laerm;62048;52.312;4.858;2022-08-24T00:41:41;30.81;29.22;32.86;;
71026;Laerm;62048;52.312;4.858;2022-08-24T00:41:52;30.78;29.27;32.46;;
71026;Laerm;62048;52.312;4.858;2022-08-24T00:42:02;30.39;28.98;31.66;;
71026;Laerm;62048;52.312;4.858;2022-08-24T00:42:12;30.34;28.88;31.79;;
71026;Laerm;62048;52.312;4.858;2022-08-24T00:42:23;30.21;28.67;32.29;;
71026;Laerm;62048;52.312;4.858;2022-08-24T00:42:33;29.94;28.36;31.45;;
71026;Laerm;62048;52.312;4.858;2022-08-24T00:42:44;31.15;28.84;33.25;;
71026;Laerm;62048;52.312;4.858;2022-08-24T00:42:55;30.74;29.20;32.08;;
71026;Laerm;62048;52.312;4.858;2022-08-24T00:43:06;30.33;29.00;33.45;;
71026;Laerm;62048;52.312;4.858;2022-08-24T00:43:18;30.07;28.83;31.75;;
71026;Laerm;62048;52.312;4.858;2022-08-24T00:43:29;30.12;28.58;34.03;;
71026;Laerm;62048;52.312;4.858;2022-08-24T00:43:49;30.26;28.89;31.75;;
71026;Laerm;62048;52.312;4.858;2022-08-24T00:44:01;30.54;28.72;32.26;;
71026;Laerm;62048;52.312;4.858;2022-08-24T00:44:11;30.63;28.93;32.02;;
71026;Laerm;62048;52.312;4.858;2022-08-24T00:44:23;30.64;28.63;32.41;;
71026;Laerm;62048;52.312;4.858;2022-08-24T00:44:33;30.87;29.30;32.55;;
71026;Laerm;62048;52.312;4.858;2022-08-24T00:44:43;31.43;29.72;33.94;;
71026;Laerm;62048;52.312;4.858;2022-08-24T00:44:54;30.87;29.12;33.45;;
71026;Laerm;62048;52.312;4.858;2022-08-24T00:45:05;30.83;29.24;32.81;;
71026;Laerm;62048;52.312;4.858;2022-08-24T00:45:16;31.57;29.36;34.45;;
71026;Laerm;62048;52.312;4.858;2022-08-24T00:45:27;32.98;31.08;35.45;;
71026;Laerm;62048;52.312;4.858;2022-08-24T00:45:42;32.99;30.44;35.79;;
71026;Laerm;62048;52.312;4.858;2022-08-24T00:46:27;31.69;29.46;36.55;;
71026;Laerm;62048;52.312;4.858;2022-08-24T00:46:41;31.71;29.52;34.31;;
71026;Laerm;62048;52.312;4.858;2022-08-24T00:47:03;32.65;30.89;35.45;;
71026;Laerm;62048;52.312;4.858;2022-08-24T00:47:19;32.05;30.28;33.85;;
71026;Laerm;62048;52.312;4.858;2022-08-24T00:47:31;32.09;29.51;37.38;;
71026;Laerm;62048;52.312;4.858;2022-08-24T00:47:45;31.84;30.21;34.39;;
71026;Laerm;62048;52.312;4.858;2022-08-24T00:47:58;31.99;29.53;35.00;;
71026;Laerm;62048;52.312;4.858;2022-08-24T00:48:12;31.83;29.76;33.75;;
71026;Laerm;62048;52.312;4.858;2022-08-24T00:48:24;31.58;29.82;33.77;;
71026;Laerm;62048;52.312;4.858;2022-08-24T00:48:36;31.68;29.45;33.70;;
71026;Laerm;62048;52.312;4.858;2022-08-24T00:48:49;31.91;29.66;33.97;;
71026;Laerm;62048;52.312;4.858;2022-08-24T00:49:02;32.09;29.94;33.87;;
71026;Laerm;62048;52.312;4.858;2022-08-24T00:50:00;31.28;29.55;33.28;;
71026;Laerm;62048;52.312;4.858;2022-08-24T00:50:12;31.44;29.53;34.84;;
71026;Laerm;62048;52.312;4.858;2022-08-24T00:50:48;32.10;29.50;34.04;;
71026;Laerm;62048;52.312;4.858;2022-08-24T00:50:58;31.94;29.44;38.98;;
71026;Laerm;62048;52.312;4.858;2022-08-24T00:51:19;43.44;35.02;48.44;;
71026;Laerm;62048;52.312;4.858;2022-08-24T00:52:05;34.86;31.00;40.82;;
71026;Laerm;62048;52.312;4.858;2022-08-24T00:52:17;42.35;32.63;50.62;;
71026;Laerm;62048;52.312;4.858;2022-08-24T00:52:26;33.07;30.57;36.40;;
71026;Laerm;62048;52.312;4.858;2022-08-24T00:52:48;32.56;30.42;34.93;;
71026;Laerm;62048;52.312;4.858;2022-08-24T00:53:01;32.07;29.74;35.59;;
71026;Laerm;62048;52.312;4.858;2022-08-24T00:53:16;32.04;30.16;34.13;;
71026;Laerm;62048;52.312;4.858;2022-08-24T00:53:34;33.90;30.04;40.60;;
71026;Laerm;62048;52.312;4.858;2022-08-24T00:53:46;32.14;29.88;37.13;;
71026;Laerm;62048;52.312;4.858;2022-08-24T00:54:01;31.49;29.47;33.29;;
71026;Laerm;62048;52.312;4.858;2022-08-24T00:54:15;31.71;29.55;34.47;;
71026;Laerm;62048;52.312;4.858;2022-08-24T00:54:27;32.83;30.97;34.35;;
71026;Laerm;62048;52.312;4.858;2022-08-24T00:54:39;32.72;30.72;36.61;;
71026;Laerm;62048;52.312;4.858;2022-08-24T00:55:00;32.78;30.92;34.80;;
71026;Laerm;62048;52.312;4.858;2022-08-24T00:55:13;33.36;31.06;35.50;;
71026;Laerm;62048;52.312;4.858;2022-08-24T00:55:29;34.43;32.46;36.40;;
71026;Laerm;62048;52.312;4.858;2022-08-24T00:55:42;34.16;31.88;37.68;;
71026;Laerm;62048;52.312;4.858;2022-08-24T00:55:56;34.25;31.50;36.27;;
71026;Laerm;62048;52.312;4.858;2022-08-24T00:56:08;34.53;32.55;37.61;;
71026;Laerm;62048;52.312;4.858;2022-08-24T00:56:29;34.65;32.21;36.90;;
71026;Laerm;62048;52.312;4.858;2022-08-24T00:56:42;33.15;30.70;36.02;;
71026;Laerm;62048;52.312;4.858;2022-08-24T00:56:55;32.98;30.89;35.60;;
71026;Laerm;62048;52.312;4.858;2022-08-24T00:57:08;32.71;30.50;34.67;;
71026;Laerm;62048;52.312;4.858;2022-08-24T00:57:21;33.11;30.43;35.46;;
71026;Laerm;62048;52.312;4.858;2022-08-24T00:57:34;32.13;29.73;34.40;;
71026;Laerm;62048;52.312;4.858;2022-08-24T00:57:47;32.25;29.98;33.97;;
71026;Laerm;62048;52.312;4.858;2022-08-24T00:57:59;31.89;30.04;34.82;;
71026;Laerm;62048;52.312;4.858;2022-08-24T00:58:16;31.70;29.91;36.31;;
71026;Laerm;62048;52.312;4.858;2022-08-24T00:58:29;32.46;30.18;36.69;;
71026;Laerm;62048;52.312;4.858;2022-08-24T00:58:42;31.16;29.58;33.06;;
71026;Laerm;62048;52.312;4.858;2022-08-24T00:58:58;31.58;29.34;33.99;;
71026;Laerm;62048;52.312;4.858;2022-08-24T00:59:17;31.77;29.52;36.04;;
71026;Laerm;62048;52.312;4.858;2022-08-24T00:59:28;32.40;30.00;35.66;;
71026;Laerm;62048;52.312;4.858;2022-08-24T00:59:41;32.21;30.32;33.99;;
71026;Laerm;62048;52.312;4.858;2022-08-24T00:59:54;32.63;30.31;34.80;;
71026;Laerm;62048;52.312;4.858;2022-08-24T01:00:10;33.44;31.01;36.22;;
71026;Laerm;62048;52.312;4.858;2022-08-24T01:00:25;32.59;30.36;35.45;;
71026;Laerm;62048;52.312;4.858;2022-08-24T01:00:39;31.73;29.66;34.33;;
71026;Laerm;62048;52.312;4.858;2022-08-24T01:00:56;31.70;29.90;34.43;;
71026;Laerm;62048;52.312;4.858;2022-08-24T01:01:07;31.80;29.47;34.20;;
71026;Laerm;62048;52.312;4.858;2022-08-24T01:01:18;32.11;29.96;34.67;;
71026;Laerm;62048;52.312;4.858;2022-08-24T01:01:28;31.96;30.23;33.49;;
71026;Laerm;62048;52.312;4.858;2022-08-24T01:01:40;32.58;30.20;35.02;;
71026;Laerm;62048;52.312;4.858;2022-08-24T01:01:51;32.59;30.28;38.06;;
71026;Laerm;62048;52.312;4.858;2022-08-24T01:02:04;33.94;31.33;37.84;;
71026;Laerm;62048;52.312;4.858;2022-08-24T01:02:20;32.72;30.04;34.99;;
71026;Laerm;62048;52.312;4.858;2022-08-24T01:02:33;32.72;30.71;35.88;;
71026;Laerm;62048;52.312;4.858;2022-08-24T01:02:44;32.15;30.33;33.99;;
71026;Laerm;62048;52.312;4.858;2022-08-24T01:02:58;33.38;30.99;44.56;;
71026;Laerm;62048;52.312;4.858;2022-08-24T01:03:13;33.45;30.75;36.09;;
71026;Laerm;62048;52.312;4.858;2022-08-24T01:03:24;33.84;31.52;37.36;;
71026;Laerm;62048;52.312;4.858;2022-08-24T01:03:35;33.60;30.50;36.52;;
71026;Laerm;62048;52.312;4.858;2022-08-24T01:03:46;32.65;30.76;36.28;;
71026;Laerm;62048;52.312;4.858;2022-08-24T01:03:57;33.05;30.51;35.66;;
71026;Laerm;62048;52.312;4.858;2022-08-24T01:04:13;33.12;31.24;35.42;;
71026;Laerm;62048;52.312;4.858;2022-08-24T01:04:27;32.83;30.42;35.74;;
71026;Laerm;62048;52.312;4.858;2022-08-24T01:04:42;32.24;30.42;34.19;;
71026;Laerm;62048;52.312;4.858;2022-08-24T01:04:56;32.65;30.04;36.78;;
71026;Laerm;62048;52.312;4.858;2022-08-24T01:05:07;32.63;30.54;34.50;;
71026;Laerm;62048;52.312;4.858;2022-08-24T01:05:17;32.63;30.71;34.55;;
71026;Laerm;62048;52.312;4.858;2022-08-24T01:05:28;33.17;30.98;35.08;;
71026;Laerm;62048;52.312;4.858;2022-08-24T01:05:39;33.51;31.36;36.01;;
71026;Laerm;62048;52.312;4.858;2022-08-24T01:05:49;34.17;32.33;36.34;;
71026;Laerm;62048;52.312;4.858;2022-08-24T01:06:00;33.65;31.66;36.08;;
71026;Laerm;62048;52.312;4.858;2022-08-24T01:06:11;34.10;31.98;36.92;;